ESGT/THN METAR and TAF weather

Enter ICAO airport designator
Station Type Date Time Source
ESGT METAR 2018/04/20 17:50 UTC NOAA

ESGT 201750Z 25009KT CAVOK 15/09 Q1011


Station Type Date Time Source
ESGT Decoded METAR 2018/04/20 17:50 UTC NOAA

Trollhattan Private , Sweden (ESGT) 58-19N 012-21E
Apr 20, 2018 - 01:50 PM EDT / 2018.04.20 1750 UTC
Wind: from the WSW (250 degrees) at 10 MPH (9 KT):0
Visibility: greater than 7 mile(s):0
Temperature: 59 F (15 C)
Dew Point: 48 F (9 C)
Relative Humidity: 67%
Pressure (altimeter): 29.85 in. Hg (1011 hPa)
ob: ESGT 201750Z 25009KT CAVOK 15/09 Q1011
cycle: 18

Station Type Date Time Source
ESGT TAF 2016/08/12 05:58 UTC NOAA

TAF ESGT 120430Z 1205/1224 18007KT 9999 FEW030


Example: see airport list